ANA14 RJOO-RJTT
Flight info
| Callsign | ANA14 |
|---|---|
| Flight time | 0h 43m |
| Altitude | 27000 |
| Route | DCT ASUKA DCT SHTLE Y71 XAC XACV |
| Aircraft | B772/H-SDE2E3FGHIJ5LORVWXY/LB1D1 |
Departure
| Time | 2026-05-06 02:28 |
|---|---|
| Airport | Osaka Itami International Airport (RJOO) |
Arrival
| Time | 2026-05-06 03:12 |
|---|---|
| Airport | Tokyo Haneda International Airport (RJTT) |
| Time | Latitude | Longitude | Altitude | Speed | Heading |
|---|---|---|---|---|---|
| 2026-05-06 01:54 | 34.79016 | 135.44025 | 53 ft | 0 kts | 22° |
| 2026-05-06 02:17 | 34.78995 | 135.44014 | 51 ft | 4 kts | 22° |
| 2026-05-06 02:17 | 34.78970 | 135.44002 | 47 ft | 4 kts | 24° |
| 2026-05-06 02:17 | 34.78946 | 135.43987 | 49 ft | 4 kts | 33° |
| 2026-05-06 02:17 | 34.78928 | 135.43970 | 51 ft | 4 kts | 48° |
| 2026-05-06 02:18 | 34.78915 | 135.43944 | 50 ft | 4 kts | 84° |
| 2026-05-06 02:18 | 34.78919 | 135.43915 | 45 ft | 4 kts | 127° |
| 2026-05-06 02:18 | 34.78936 | 135.43892 | 46 ft | 4 kts | 135° |
| 2026-05-06 02:18 | 34.78955 | 135.43869 | 47 ft | 4 kts | 135° |
| 2026-05-06 02:19 | 34.78969 | 135.43852 | 46 ft | 0 kts | 135° |
| 2026-05-06 02:21 | 34.78956 | 135.43868 | 47 ft | 7 kts | 135° |
| 2026-05-06 02:21 | 34.78922 | 135.43909 | 45 ft | 7 kts | 135° |
| 2026-05-06 02:21 | 34.78888 | 135.43951 | 48 ft | 7 kts | 135° |
| 2026-05-06 02:21 | 34.78854 | 135.43993 | 48 ft | 7 kts | 135° |
| 2026-05-06 02:22 | 34.78819 | 135.44034 | 50 ft | 7 kts | 135° |
| 2026-05-06 02:22 | 34.78785 | 135.44076 | 47 ft | 7 kts | 135° |
| 2026-05-06 02:22 | 34.78746 | 135.44124 | 47 ft | 10 kts | 135° |
| 2026-05-06 02:22 | 34.78683 | 135.44199 | 47 ft | 15 kts | 135° |
| 2026-05-06 02:23 | 34.78601 | 135.44298 | 46 ft | 16 kts | 135° |
| 2026-05-06 02:23 | 34.78487 | 135.44336 | 50 ft | 19 kts | 182° |
| 2026-05-06 02:23 | 34.78346 | 135.44333 | 50 ft | 19 kts | 181° |
| 2026-05-06 02:23 | 34.78223 | 135.44335 | 51 ft | 15 kts | 179° |
| 2026-05-06 02:24 | 34.78128 | 135.44391 | 46 ft | 18 kts | 135° |
| 2026-05-06 02:24 | 34.78032 | 135.44509 | 49 ft | 21 kts | 135° |
| 2026-05-06 02:24 | 34.77920 | 135.44646 | 48 ft | 24 kts | 135° |
| 2026-05-06 02:24 | 34.77797 | 135.44795 | 48 ft | 26 kts | 135° |
| 2026-05-06 02:25 | 34.77666 | 135.44953 | 47 ft | 27 kts | 135° |
| 2026-05-06 02:25 | 34.77530 | 135.45118 | 49 ft | 28 kts | 135° |
| 2026-05-06 02:25 | 34.77418 | 135.45254 | 48 ft | 19 kts | 135° |
| 2026-05-06 02:25 | 34.77320 | 135.45308 | 48 ft | 15 kts | 186° |
| 2026-05-06 02:26 | 34.77251 | 135.45223 | 49 ft | 13 kts | 239° |
| 2026-05-06 02:26 | 34.77269 | 135.45127 | 48 ft | 13 kts | 309° |
| 2026-05-06 02:26 | 34.77294 | 135.45096 | 49 ft | 0 kts | 316° |
| 2026-05-06 02:27 | 34.77298 | 135.45091 | 50 ft | 4 kts | 316° |
| 2026-05-06 02:27 | 34.77379 | 135.44994 | 48 ft | 39 kts | 315° |
| 2026-05-06 02:27 | 34.77765 | 135.44526 | 46 ft | 124 kts | 315° |
| 2026-05-06 02:28 | 34.78554 | 135.43551 | 271 ft | 184 kts | 316° |
| 2026-05-06 02:28 | 34.79455 | 135.42429 | 1468 ft | 182 kts | 314° |
| 2026-05-06 02:28 | 34.80224 | 135.41190 | 2477 ft | 186 kts | 296° |
| 2026-05-06 02:28 | 34.80553 | 135.39695 | 3019 ft | 188 kts | 268° |
| 2026-05-06 02:29 | 34.80280 | 135.38133 | 3516 ft | 193 kts | 241° |
| 2026-05-06 02:29 | 34.79424 | 135.36917 | 4106 ft | 187 kts | 215° |
| 2026-05-06 02:29 | 34.78294 | 135.36070 | 4648 ft | 193 kts | 206° |
| 2026-05-06 02:29 | 34.77000 | 135.35479 | 5068 ft | 205 kts | 194° |
| 2026-05-06 02:30 | 34.75529 | 135.35326 | 5438 ft | 220 kts | 173° |
| 2026-05-06 02:30 | 34.74094 | 135.36109 | 6040 ft | 236 kts | 144° |
| 2026-05-06 02:30 | 34.73010 | 135.37692 | 6616 ft | 254 kts | 122° |
| 2026-05-06 02:30 | 34.72437 | 135.39825 | 6958 ft | 281 kts | 98° |
| 2026-05-06 02:31 | 34.72604 | 135.42265 | 7477 ft | 295 kts | 71° |
| 2026-05-06 02:31 | 34.73571 | 135.44440 | 8288 ft | 292 kts | 62° |
| 2026-05-06 02:31 | 34.74501 | 135.46666 | 8967 ft | 297 kts | 66° |
| 2026-05-06 02:31 | 34.75384 | 135.48924 | 9764 ft | 293 kts | 66° |
| 2026-05-06 02:32 | 34.76286 | 135.51166 | 10304 ft | 300 kts | 65° |
| 2026-05-06 02:32 | 34.77244 | 135.53494 | 10628 ft | 320 kts | 64° |
| 2026-05-06 02:32 | 34.78199 | 135.56018 | 10766 ft | 340 kts | 73° |
| 2026-05-06 02:32 | 34.78663 | 135.58921 | 10964 ft | 359 kts | 89° |
| 2026-05-06 02:33 | 34.78606 | 135.62008 | 11509 ft | 369 kts | 95° |
| 2026-05-06 02:33 | 34.78496 | 135.64134 | 11953 ft | 375 kts | 95° |
| 2026-05-06 02:33 | 34.78087 | 135.71630 | 13872 ft | 387 kts | 94° |
| 2026-05-06 02:34 | 34.77928 | 135.74923 | 14560 ft | 393 kts | 94° |
| 2026-05-06 02:34 | 34.77776 | 135.78278 | 15152 ft | 401 kts | 94° |
| 2026-05-06 02:34 | 34.77627 | 135.81704 | 15770 ft | 408 kts | 94° |
| 2026-05-06 02:34 | 34.77480 | 135.85141 | 16389 ft | 415 kts | 95° |
| 2026-05-06 02:35 | 34.77328 | 135.88695 | 17011 ft | 422 kts | 95° |
| 2026-05-06 02:35 | 34.77175 | 135.92271 | 17618 ft | 428 kts | 95° |
| 2026-05-06 02:35 | 34.77018 | 135.95922 | 18204 ft | 435 kts | 95° |
| 2026-05-06 02:35 | 34.76857 | 135.99619 | 18762 ft | 441 kts | 95° |
| 2026-05-06 02:36 | 34.76698 | 136.03330 | 19204 ft | 448 kts | 94° |
| 2026-05-06 02:36 | 34.76745 | 136.07168 | 19567 ft | 460 kts | 89° |
| 2026-05-06 02:36 | 34.77016 | 136.11072 | 20000 ft | 468 kts | 86° |
| 2026-05-06 02:36 | 34.77376 | 136.15042 | 20455 ft | 474 kts | 85° |
| 2026-05-06 02:37 | 34.77749 | 136.19059 | 20906 ft | 481 kts | 86° |
| 2026-05-06 02:37 | 34.78107 | 136.23133 | 21368 ft | 488 kts | 86° |
| 2026-05-06 02:37 | 34.78441 | 136.27272 | 21806 ft | 495 kts | 87° |
| 2026-05-06 02:37 | 34.78755 | 136.31467 | 22230 ft | 502 kts | 88° |
| 2026-05-06 02:38 | 34.79084 | 136.36056 | 22717 ft | 508 kts | 88° |
| 2026-05-06 02:38 | 34.79386 | 136.40358 | 23188 ft | 513 kts | 88° |
| 2026-05-06 02:38 | 34.79687 | 136.44722 | 23576 ft | 521 kts | 88° |
| 2026-05-06 02:39 | 34.79994 | 136.49142 | 23967 ft | 528 kts | 88° |
| 2026-05-06 02:39 | 34.80304 | 136.53617 | 24470 ft | 529 kts | 89° |
| 2026-05-06 02:39 | 34.80609 | 136.57998 | 25040 ft | 529 kts | 89° |
| 2026-05-06 02:39 | 34.80918 | 136.62454 | 25586 ft | 529 kts | 89° |
| 2026-05-06 02:40 | 34.81226 | 136.66931 | 26076 ft | 531 kts | 89° |
| 2026-05-06 02:40 | 34.81531 | 136.71417 | 26523 ft | 534 kts | 89° |
| 2026-05-06 02:40 | 34.81838 | 136.75936 | 26982 ft | 536 kts | 89° |
| 2026-05-06 02:40 | 34.82143 | 136.80460 | 27445 ft | 537 kts | 90° |
| 2026-05-06 02:41 | 34.82448 | 136.85000 | 27896 ft | 538 kts | 90° |
| 2026-05-06 02:41 | 34.82752 | 136.89547 | 28356 ft | 539 kts | 90° |
| 2026-05-06 02:41 | 34.83045 | 136.94098 | 28782 ft | 540 kts | 92° |
| 2026-05-06 02:41 | 34.82999 | 136.98635 | 29138 ft | 533 kts | 102° |
| 2026-05-06 02:42 | 34.82538 | 137.03108 | 29494 ft | 531 kts | 106° |
| 2026-05-06 02:42 | 34.81942 | 137.07548 | 29873 ft | 532 kts | 107° |
| 2026-05-06 02:42 | 34.81320 | 137.12002 | 30271 ft | 533 kts | 107° |
| 2026-05-06 02:42 | 34.80735 | 137.16401 | 30572 ft | 536 kts | 106° |
| 2026-05-06 02:43 | 34.80178 | 137.20899 | 30794 ft | 540 kts | 105° |
| 2026-05-06 02:43 | 34.79647 | 137.25453 | 30990 ft | 544 kts | 105° |
| 2026-05-06 02:43 | 34.79135 | 137.30020 | 31142 ft | 547 kts | 104° |
| 2026-05-06 02:44 | 34.78122 | 137.39172 | 31219 ft | 544 kts | 105° |
| 2026-05-06 02:44 | 34.77089 | 137.48303 | 31231 ft | 545 kts | 105° |
| 2026-05-06 02:45 | 34.76034 | 137.57442 | 31224 ft | 546 kts | 105° |
| 2026-05-06 02:45 | 34.74982 | 137.66537 | 31229 ft | 546 kts | 105° |
| 2026-05-06 02:46 | 34.74012 | 137.75730 | 31223 ft | 548 kts | 103° |
| 2026-05-06 02:46 | 34.73163 | 137.84949 | 31233 ft | 548 kts | 103° |
| 2026-05-06 02:47 | 34.72287 | 137.94106 | 31235 ft | 548 kts | 104° |
| 2026-05-06 02:47 | 34.71427 | 138.03350 | 31237 ft | 552 kts | 101° |
| 2026-05-06 02:48 | 34.71334 | 138.12757 | 31240 ft | 558 kts | 95° |
| 2026-05-06 02:48 | 34.71459 | 138.22203 | 31238 ft | 558 kts | 95° |
| 2026-05-06 02:49 | 34.71539 | 138.31574 | 31221 ft | 553 kts | 95° |
| 2026-05-06 02:49 | 34.71560 | 138.36201 | 31045 ft | 544 kts | 95° |
| 2026-05-06 02:49 | 34.71573 | 138.40786 | 30611 ft | 539 kts | 96° |
| 2026-05-06 02:49 | 34.71578 | 138.43865 | 30272 ft | 537 kts | 96° |
| 2026-05-06 02:50 | 34.71583 | 138.48342 | 29689 ft | 534 kts | 96° |
| 2026-05-06 02:50 | 34.71590 | 138.54344 | 28940 ft | 528 kts | 95° |
| 2026-05-06 02:50 | 34.71593 | 138.57299 | 28581 ft | 525 kts | 95° |
| 2026-05-06 02:50 | 34.71598 | 138.61720 | 28062 ft | 520 kts | 95° |
| 2026-05-06 02:51 | 34.71601 | 138.66114 | 27561 ft | 516 kts | 95° |
| 2026-05-06 02:51 | 34.71603 | 138.70461 | 27053 ft | 511 kts | 94° |
| 2026-05-06 02:51 | 34.71603 | 138.74763 | 26582 ft | 507 kts | 94° |
| 2026-05-06 02:51 | 34.71603 | 138.79035 | 26143 ft | 502 kts | 94° |
| 2026-05-06 02:52 | 34.71596 | 138.83213 | 25658 ft | 498 kts | 94° |
| 2026-05-06 02:52 | 34.71576 | 138.87407 | 25188 ft | 494 kts | 94° |
| 2026-05-06 02:52 | 34.71551 | 138.91569 | 24727 ft | 491 kts | 94° |
| 2026-05-06 02:52 | 34.71527 | 138.95706 | 24296 ft | 487 kts | 94° |
| 2026-05-06 02:53 | 34.71502 | 138.99801 | 23876 ft | 482 kts | 93° |
| 2026-05-06 02:53 | 34.71479 | 139.03880 | 23401 ft | 478 kts | 93° |
| 2026-05-06 02:53 | 34.71456 | 139.07845 | 22978 ft | 473 kts | 93° |
| 2026-05-06 02:53 | 34.71431 | 139.11836 | 22552 ft | 468 kts | 93° |
| 2026-05-06 02:54 | 34.71405 | 139.15789 | 22123 ft | 464 kts | 94° |
| 2026-05-06 02:54 | 34.71377 | 139.19684 | 21698 ft | 460 kts | 94° |
| 2026-05-06 02:54 | 34.71348 | 139.23550 | 21269 ft | 455 kts | 94° |
| 2026-05-06 02:54 | 34.71318 | 139.27396 | 20842 ft | 451 kts | 94° |
| 2026-05-06 02:55 | 34.71288 | 139.31187 | 20443 ft | 447 kts | 94° |
| 2026-05-06 02:55 | 34.71258 | 139.34907 | 20051 ft | 443 kts | 94° |
| 2026-05-06 02:55 | 34.71237 | 139.38631 | 19662 ft | 437 kts | 91° |
| 2026-05-06 02:55 | 34.71711 | 139.42280 | 19143 ft | 440 kts | 71° |
| 2026-05-06 02:56 | 34.73073 | 139.45589 | 18679 ft | 435 kts | 57° |
| 2026-05-06 02:56 | 34.74668 | 139.48705 | 18268 ft | 432 kts | 57° |
| 2026-05-06 02:56 | 34.76237 | 139.51802 | 17871 ft | 429 kts | 58° |
| 2026-05-06 02:56 | 34.77780 | 139.54891 | 17498 ft | 425 kts | 58° |
| 2026-05-06 02:57 | 34.79296 | 139.57961 | 17136 ft | 422 kts | 58° |
| 2026-05-06 02:57 | 34.80791 | 139.61015 | 16755 ft | 418 kts | 59° |
| 2026-05-06 02:57 | 34.82264 | 139.64036 | 16395 ft | 415 kts | 59° |
| 2026-05-06 02:57 | 34.83734 | 139.67058 | 16037 ft | 412 kts | 59° |
| 2026-05-06 02:58 | 34.85185 | 139.70044 | 15692 ft | 408 kts | 59° |
| 2026-05-06 02:58 | 34.86624 | 139.73007 | 15345 ft | 405 kts | 59° |
| 2026-05-06 02:58 | 34.88064 | 139.75975 | 14778 ft | 408 kts | 59° |
| 2026-05-06 02:58 | 34.89513 | 139.78960 | 14076 ft | 405 kts | 59° |
| 2026-05-06 02:59 | 34.90924 | 139.81870 | 13246 ft | 394 kts | 59° |
| 2026-05-06 02:59 | 34.92369 | 139.84645 | 12409 ft | 381 kts | 50° |
| 2026-05-06 02:59 | 34.94371 | 139.86729 | 11648 ft | 388 kts | 27° |
| 2026-05-06 02:59 | 34.96868 | 139.87795 | 11495 ft | 374 kts | 9° |
| 2026-05-06 03:00 | 34.99405 | 139.88027 | 11413 ft | 359 kts | 353° |
| 2026-05-06 03:00 | 35.01788 | 139.87466 | 11320 ft | 341 kts | 343° |
| 2026-05-06 03:00 | 35.04012 | 139.86728 | 11182 ft | 319 kts | 342° |
| 2026-05-06 03:00 | 35.06086 | 139.86028 | 10909 ft | 300 kts | 342° |
| 2026-05-06 03:01 | 35.08057 | 139.85369 | 10458 ft | 290 kts | 343° |
| 2026-05-06 03:01 | 35.09981 | 139.84736 | 9868 ft | 287 kts | 344° |
| 2026-05-06 03:01 | 35.11906 | 139.84113 | 9230 ft | 288 kts | 344° |
| 2026-05-06 03:01 | 35.13850 | 139.83490 | 8905 ft | 286 kts | 344° |
| 2026-05-06 03:02 | 35.15767 | 139.82879 | 8634 ft | 283 kts | 344° |
| 2026-05-06 03:02 | 35.17674 | 139.82274 | 8287 ft | 283 kts | 344° |
| 2026-05-06 03:02 | 35.19578 | 139.81670 | 8000 ft | 282 kts | 344° |
| 2026-05-06 03:02 | 35.21473 | 139.81068 | 7678 ft | 281 kts | 343° |
| 2026-05-06 03:03 | 35.23355 | 139.80471 | 7353 ft | 280 kts | 343° |
| 2026-05-06 03:03 | 35.24383 | 139.80144 | 7153 ft | 280 kts | 343° |
| 2026-05-06 03:03 | 35.25778 | 139.79715 | 6901 ft | 277 kts | 347° |
| 2026-05-06 03:04 | 35.27743 | 139.79769 | 6366 ft | 283 kts | 18° |
| 2026-05-06 03:04 | 35.29412 | 139.80996 | 5995 ft | 280 kts | 47° |
| 2026-05-06 03:04 | 35.30394 | 139.82956 | 5747 ft | 269 kts | 75° |
| 2026-05-06 03:04 | 35.30634 | 139.85154 | 5540 ft | 255 kts | 99° |
| 2026-05-06 03:05 | 35.30338 | 139.87251 | 5129 ft | 251 kts | 103° |
| 2026-05-06 03:05 | 35.30048 | 139.89369 | 4752 ft | 253 kts | 102° |
| 2026-05-06 03:05 | 35.29968 | 139.91498 | 4331 ft | 253 kts | 81° |
| 2026-05-06 03:05 | 35.30750 | 139.93384 | 4136 ft | 248 kts | 46° |
| 2026-05-06 03:06 | 35.32182 | 139.94432 | 4060 ft | 234 kts | 12° |
| 2026-05-06 03:06 | 35.33688 | 139.94352 | 3997 ft | 210 kts | 339° |
| 2026-05-06 03:06 | 35.34974 | 139.93717 | 3984 ft | 191 kts | 334° |
| 2026-05-06 03:06 | 35.36151 | 139.93033 | 4004 ft | 186 kts | 329° |
| 2026-05-06 03:07 | 35.37317 | 139.92261 | 3816 ft | 193 kts | 328° |
| 2026-05-06 03:07 | 35.38441 | 139.91483 | 3580 ft | 178 kts | 327° |
| 2026-05-06 03:07 | 35.39468 | 139.90763 | 3355 ft | 163 kts | 327° |
| 2026-05-06 03:07 | 35.40469 | 139.90052 | 3156 ft | 171 kts | 326° |
| 2026-05-06 03:08 | 35.41499 | 139.89324 | 2920 ft | 170 kts | 327° |
| 2026-05-06 03:08 | 35.42516 | 139.88609 | 2710 ft | 174 kts | 327° |
| 2026-05-06 03:08 | 35.43586 | 139.87855 | 2476 ft | 175 kts | 326° |
| 2026-05-06 03:08 | 35.44632 | 139.87114 | 2228 ft | 176 kts | 326° |
| 2026-05-06 03:09 | 35.45671 | 139.86380 | 1998 ft | 168 kts | 325° |
| 2026-05-06 03:09 | 35.46673 | 139.85671 | 1760 ft | 165 kts | 325° |
| 2026-05-06 03:09 | 35.47660 | 139.84973 | 1522 ft | 162 kts | 327° |
| 2026-05-06 03:09 | 35.48623 | 139.84293 | 1300 ft | 156 kts | 327° |
| 2026-05-06 03:10 | 35.49512 | 139.83666 | 1098 ft | 153 kts | 326° |
| 2026-05-06 03:10 | 35.50442 | 139.83005 | 911 ft | 159 kts | 324° |
| 2026-05-06 03:10 | 35.51390 | 139.82336 | 699 ft | 155 kts | 327° |
| 2026-05-06 03:10 | 35.52326 | 139.81672 | 503 ft | 158 kts | 328° |
| 2026-05-06 03:11 | 35.53285 | 139.80999 | 294 ft | 158 kts | 328° |
| 2026-05-06 03:11 | 35.53773 | 139.80653 | 208 ft | 157 kts | 326° |
| 2026-05-06 03:11 | 35.54688 | 139.80008 | 35 ft | 153 kts | 327° |
| 2026-05-06 03:11 | 35.55442 | 139.79466 | 32 ft | 66 kts | 330° |
| 2026-05-06 03:12 | 35.55708 | 139.79240 | 31 ft | 33 kts | 314° |
| 2026-05-06 03:12 | 35.55772 | 139.79144 | 29 ft | 0 kts | 301° |
| 2026-05-06 03:12 | 35.55773 | 139.79143 | 29 ft | 1 kts | 301° |
| 2026-05-06 03:12 | 35.55777 | 139.79135 | 28 ft | 2 kts | 302° |
| 2026-05-06 03:13 | 35.55783 | 139.79122 | 28 ft | 2 kts | 296° |
| 2026-05-06 03:13 | 35.55787 | 139.79106 | 28 ft | 2 kts | 289° |
| 2026-05-06 03:13 | 35.55791 | 139.79085 | 28 ft | 5 kts | 278° |
| 2026-05-06 03:13 | 35.55778 | 139.79033 | 28 ft | 8 kts | 231° |
| 2026-05-06 03:14 | 35.55723 | 139.79020 | 30 ft | 9 kts | 166° |
| 2026-05-06 03:14 | 35.55656 | 139.79061 | 30 ft | 13 kts | 150° |
| 2026-05-06 03:14 | 35.55612 | 139.79093 | 30 ft | 1 kts | 150° |
| 2026-05-06 03:14 | 35.55595 | 139.79105 | 30 ft | 5 kts | 150° |
| 2026-05-06 03:15 | 35.55576 | 139.79118 | 30 ft | 0 kts | 150° |
| 2026-05-06 03:16 | 35.55574 | 139.79119 | 30 ft | 3 kts | 150° |
| 2026-05-06 03:16 | 35.55535 | 139.79143 | 30 ft | 8 kts | 163° |
| 2026-05-06 03:16 | 35.55480 | 139.79103 | 30 ft | 11 kts | 234° |
| 2026-05-06 03:16 | 35.55438 | 139.79014 | 30 ft | 13 kts | 240° |
| 2026-05-06 03:17 | 35.55404 | 139.78945 | 32 ft | 6 kts | 239° |
| 2026-05-06 03:17 | 35.55392 | 139.78880 | 31 ft | 10 kts | 278° |
| 2026-05-06 03:17 | 35.55405 | 139.78813 | 32 ft | 5 kts | 284° |
| 2026-05-06 03:17 | 35.55407 | 139.78799 | 32 ft | 1 kts | 284° |
| 2026-05-06 03:18 | 35.55408 | 139.78795 | 32 ft | 0 kts | 284° |